createdAt,value
2023-04-14T00:00:29.996Z,93731.00
2023-04-14T00:01:29.940Z,93733.00
2023-04-14T00:02:30.035Z,93729.00
2023-04-14T00:03:30.170Z,93729.00
2023-04-14T00:04:30.106Z,93729.00
2023-04-14T00:05:30.031Z,93731.00
2023-04-14T00:06:30.036Z,93733.00
2023-04-14T00:07:30.057Z,93735.00
2023-04-14T00:08:30.036Z,93733.00
2023-04-14T00:09:30.122Z,93735.00
2023-04-14T00:10:30.103Z,93739.00
2023-04-14T00:11:30.086Z,93737.00
2023-04-14T00:12:30.089Z,93735.00
2023-04-14T00:13:30.103Z,93735.00
2023-04-14T00:14:30.152Z,93739.00
2023-04-14T00:15:30.200Z,93737.00
2023-04-14T00:16:30.256Z,93741.00
2023-04-14T00:17:30.292Z,93739.00
2023-04-14T00:18:30.221Z,93741.00
2023-04-14T00:19:30.279Z,93741.00
2023-04-14T00:20:30.290Z,93741.00
2023-04-14T00:21:30.313Z,93739.00
2023-04-14T00:22:30.362Z,93735.00
2023-04-14T00:23:30.366Z,93737.00
2023-04-14T00:24:30.377Z,93737.00
2023-04-14T00:25:30.436Z,93735.00
2023-04-14T00:26:30.438Z,93735.00
2023-04-14T00:27:30.465Z,93733.00
2023-04-14T00:28:30.452Z,93735.00
2023-04-14T00:29:30.506Z,93735.00
2023-04-14T00:30:30.485Z,93735.00
2023-04-14T00:31:30.579Z,93735.00
2023-04-14T00:32:30.561Z,93733.00
2023-04-14T00:33:30.534Z,93735.00
2023-04-14T00:34:30.539Z,93733.00
2023-04-14T00:35:30.564Z,93733.00
2023-04-14T00:36:30.554Z,93731.00
2023-04-14T00:37:30.565Z,93729.00
2023-04-14T00:38:30.576Z,93727.00
2023-04-14T00:39:30.576Z,93729.00
2023-04-14T00:40:30.597Z,93725.00
2023-04-14T00:41:30.601Z,93725.00
2023-04-14T00:42:30.644Z,93723.00
2023-04-14T00:43:30.604Z,93719.00
2023-04-14T00:44:30.605Z,93725.00
2023-04-14T00:45:30.614Z,93725.00
2023-04-14T00:46:30.694Z,93725.00
2023-04-14T00:47:30.636Z,93727.00
2023-04-14T00:48:30.619Z,93727.00
2023-04-14T00:49:30.658Z,93727.00
2023-04-14T00:50:30.689Z,93727.00
2023-04-14T00:51:31.146Z,93727.00
2023-04-14T00:52:30.715Z,93727.00
2023-04-14T00:53:30.742Z,93725.00
2023-04-14T00:54:30.789Z,93725.00
2023-04-14T00:55:31.065Z,93727.00
2023-04-14T00:56:30.829Z,93721.00
2023-04-14T00:57:30.795Z,93725.00
2023-04-14T00:58:30.818Z,93725.00
2023-04-14T00:59:30.808Z,93721.00
2023-04-14T01:00:30.809Z,93721.00
2023-04-14T01:01:30.829Z,93725.00
2023-04-14T01:02:31.071Z,93723.00
2023-04-14T01:03:30.899Z,93723.00
2023-04-14T01:04:44.531Z,93725.00
2023-04-14T01:05:31.882Z,93721.00
2023-04-14T01:06:30.838Z,93721.00
2023-04-14T01:07:30.842Z,93719.00
2023-04-14T01:08:30.810Z,93719.00
2023-04-14T01:09:30.824Z,93719.00
2023-04-14T01:10:30.814Z,93719.00
2023-04-14T01:11:30.828Z,93717.00
2023-04-14T01:12:30.812Z,93719.00
2023-04-14T01:13:30.788Z,93715.00
2023-04-14T01:14:30.757Z,93717.00
2023-04-14T01:15:30.757Z,93719.00
2023-04-14T01:16:30.850Z,93719.00
2023-04-14T01:17:30.754Z,93721.00
2023-04-14T01:18:30.725Z,93721.00
2023-04-14T01:19:30.715Z,93721.00
2023-04-14T01:20:30.733Z,93723.00
2023-04-14T01:21:30.709Z,93723.00
2023-04-14T01:22:30.687Z,93725.00
2023-04-14T01:23:30.689Z,93727.00
2023-04-14T01:24:30.698Z,93725.00
2023-04-14T01:25:31.103Z,93723.00
2023-04-14T01:26:30.723Z,93725.00
2023-04-14T01:27:30.666Z,93725.00
2023-04-14T01:28:30.648Z,93721.00
2023-04-14T01:29:30.639Z,93721.00
2023-04-14T01:30:30.629Z,93719.00
2023-04-14T01:31:30.671Z,93715.00
2023-04-14T01:32:30.680Z,93715.00
2023-04-14T01:33:30.677Z,93715.00
2023-04-14T01:34:30.691Z,93713.00
2023-04-14T01:35:30.722Z,93709.00
2023-04-14T01:36:30.754Z,93711.00
2023-04-14T01:37:30.811Z,93709.00
2023-04-14T01:38:30.747Z,93709.00
2023-04-14T01:39:30.792Z,93709.00
2023-04-14T01:40:30.756Z,93707.00
2023-04-14T01:41:30.774Z,93705.00
2023-04-14T01:42:30.778Z,93702.00
2023-04-14T01:43:30.826Z,93700.00
2023-04-14T01:44:30.792Z,93700.00
2023-04-14T01:45:30.867Z,93694.00
2023-04-14T01:46:30.830Z,93692.00
2023-04-14T01:47:30.853Z,93690.00
2023-04-14T01:48:30.808Z,93686.00
2023-04-14T01:49:30.825Z,93686.00
2023-04-14T01:50:31.082Z,93684.00
2023-04-14T01:51:30.807Z,93682.00
2023-04-14T01:52:30.799Z,93678.00
2023-04-14T01:53:30.800Z,93676.00
2023-04-14T01:54:30.793Z,93672.00
2023-04-14T01:55:30.811Z,93668.00
2023-04-14T01:56:31.100Z,93666.00
2023-04-14T01:57:30.817Z,93664.00
2023-04-14T01:58:30.817Z,93660.00
2023-04-14T01:59:30.860Z,93662.00
2023-04-14T02:00:30.852Z,93660.00
2023-04-14T02:01:30.956Z,93660.00
2023-04-14T02:02:30.903Z,93657.00
2023-04-14T02:03:30.887Z,93657.00
2023-04-14T02:04:30.822Z,93657.00
2023-04-14T02:05:30.828Z,93657.00
2023-04-14T02:06:30.819Z,93657.00
2023-04-14T02:07:30.805Z,93655.00
2023-04-14T02:08:30.826Z,93657.00
2023-04-14T02:09:30.802Z,93658.00
2023-04-14T02:10:30.804Z,93658.00
2023-04-14T02:11:30.806Z,93660.00
2023-04-14T02:12:30.819Z,93662.00
2023-04-14T02:13:30.770Z,93662.00
2023-04-14T02:14:30.805Z,93666.00
2023-04-14T02:15:30.800Z,93668.00
2023-04-14T02:16:30.877Z,93666.00
2023-04-14T02:17:30.930Z,93666.00
2023-04-14T02:18:30.832Z,93662.00
2023-04-14T02:19:30.781Z,93664.00
2023-04-14T02:20:30.785Z,93662.00
2023-04-14T02:21:30.813Z,93660.00
2023-04-14T02:22:30.770Z,93662.00
2023-04-14T02:23:30.755Z,93660.00
2023-04-14T02:24:30.792Z,93660.00
2023-04-14T02:25:30.773Z,93660.00
2023-04-14T02:26:30.755Z,93658.00
2023-04-14T02:27:30.779Z,93657.00
2023-04-14T02:28:30.726Z,93653.00
2023-04-14T02:29:30.736Z,93653.00
2023-04-14T02:30:30.756Z,93647.00
2023-04-14T02:31:30.724Z,93645.00
2023-04-14T02:32:30.751Z,93643.00
2023-04-14T02:33:30.755Z,93643.00
2023-04-14T02:34:30.750Z,93641.00
2023-04-14T02:35:30.734Z,93643.00
2023-04-14T02:36:30.731Z,93643.00
2023-04-14T02:37:30.774Z,93643.00
2023-04-14T02:38:30.744Z,93645.00
2023-04-14T02:39:30.734Z,93647.00
2023-04-14T02:40:30.720Z,93651.00
2023-04-14T02:41:30.706Z,93653.00
2023-04-14T02:42:30.715Z,93658.00
2023-04-14T02:43:30.776Z,93660.00
2023-04-14T02:44:30.716Z,93664.00
2023-04-14T02:45:30.714Z,93668.00
2023-04-14T02:46:30.791Z,93672.00
2023-04-14T02:47:30.772Z,93676.00
2023-04-14T02:48:30.700Z,93678.00
2023-04-14T02:49:30.724Z,93678.00
2023-04-14T02:50:30.724Z,93680.00
2023-04-14T02:51:30.836Z,93674.00
2023-04-14T02:52:30.703Z,93674.00
2023-04-14T02:53:30.711Z,93672.00
2023-04-14T02:54:30.702Z,93674.00
2023-04-14T02:55:30.733Z,93668.00
2023-04-14T02:56:30.730Z,93668.00
2023-04-14T02:57:30.740Z,93672.00
2023-04-14T02:58:30.735Z,93672.00
2023-04-14T02:59:30.759Z,93666.00
2023-04-14T03:00:30.764Z,93666.00
2023-04-14T03:01:30.742Z,93666.00
2023-04-14T03:02:30.853Z,93668.00
2023-04-14T03:03:30.737Z,93668.00
2023-04-14T03:04:30.756Z,93668.00
2023-04-14T03:05:30.720Z,93668.00
2023-04-14T03:06:30.734Z,93670.00
2023-04-14T03:07:30.717Z,93676.00
2023-04-14T03:08:30.718Z,93680.00
2023-04-14T03:09:30.719Z,93676.00
2023-04-14T03:10:30.727Z,93678.00
2023-04-14T03:11:30.727Z,93676.00
2023-04-14T03:12:30.759Z,93676.00
2023-04-14T03:13:30.695Z,93672.00
2023-04-14T03:14:30.689Z,93666.00
2023-04-14T03:15:30.713Z,93664.00
2023-04-14T03:16:30.785Z,93664.00
2023-04-14T03:17:30.696Z,93664.00
2023-04-14T03:18:30.670Z,93664.00
2023-04-14T03:19:30.696Z,93664.00
2023-04-14T03:20:30.747Z,93662.00
2023-04-14T03:21:30.639Z,93664.00
2023-04-14T03:22:30.657Z,93660.00
2023-04-14T03:23:30.674Z,93662.00
2023-04-14T03:24:30.645Z,93660.00
2023-04-14T03:25:30.639Z,93662.00
2023-04-14T03:26:30.642Z,93658.00
2023-04-14T03:27:30.658Z,93657.00
2023-04-14T03:28:30.612Z,93657.00
2023-04-14T03:29:30.616Z,93657.00
2023-04-14T03:30:30.621Z,93651.00
2023-04-14T03:31:30.662Z,93653.00
2023-04-14T03:32:30.693Z,93655.00
2023-04-14T03:33:30.622Z,93657.00
2023-04-14T03:34:30.628Z,93658.00
2023-04-14T03:35:30.627Z,93657.00
2023-04-14T03:36:30.595Z,93657.00
2023-04-14T03:37:30.625Z,93657.00
2023-04-14T03:38:30.651Z,93657.00
2023-04-14T03:39:30.677Z,93657.00
2023-04-14T03:40:30.629Z,93658.00
2023-04-14T03:41:30.620Z,93658.00
2023-04-14T03:42:31.115Z,93658.00
2023-04-14T03:43:30.620Z,93657.00
2023-04-14T03:44:30.628Z,93660.00
2023-04-14T03:45:30.618Z,93662.00
2023-04-14T03:46:30.711Z,93664.00
2023-04-14T03:47:31.438Z,93662.00
2023-04-14T03:48:30.629Z,93662.00
2023-04-14T03:49:30.642Z,93662.00
2023-04-14T03:50:30.660Z,93662.00
2023-04-14T03:51:30.679Z,93660.00
2023-04-14T03:52:30.682Z,93658.00
2023-04-14T03:53:30.717Z,93658.00
2023-04-14T03:54:30.695Z,93658.00
2023-04-14T03:55:30.694Z,93658.00
2023-04-14T03:56:30.733Z,93658.00
2023-04-14T03:57:30.679Z,93658.00
2023-04-14T03:58:30.680Z,93660.00
2023-04-14T03:59:30.733Z,93660.00
2023-04-14T04:00:30.788Z,93658.00
2023-04-14T04:01:30.732Z,93660.00
2023-04-14T04:02:30.824Z,93658.00
2023-04-14T04:03:30.924Z,93658.00
2023-04-14T04:04:30.843Z,93658.00
2023-04-14T04:05:30.720Z,93658.00
2023-04-14T04:06:30.697Z,93657.00
2023-04-14T04:07:30.708Z,93658.00
2023-04-14T04:08:30.703Z,93658.00
2023-04-14T04:09:30.719Z,93657.00
2023-04-14T04:10:30.740Z,93655.00
2023-04-14T04:11:30.691Z,93657.00
2023-04-14T04:12:30.720Z,93655.00
2023-04-14T04:13:30.721Z,93653.00
2023-04-14T04:14:30.695Z,93655.00
2023-04-14T04:15:30.710Z,93657.00
2023-04-14T04:16:30.749Z,93658.00
2023-04-14T04:17:30.732Z,93658.00
2023-04-14T04:18:30.703Z,93658.00
2023-04-14T04:19:30.695Z,93658.00
2023-04-14T04:20:30.697Z,93662.00
2023-04-14T04:21:30.682Z,93662.00
2023-04-14T04:22:30.678Z,93662.00
2023-04-14T04:23:30.683Z,93662.00
2023-04-14T04:24:30.648Z,93662.00
2023-04-14T04:25:30.681Z,93664.00
2023-04-14T04:26:30.676Z,93668.00
2023-04-14T04:27:30.656Z,93670.00
2023-04-14T04:28:30.716Z,93674.00
2023-04-14T04:29:30.657Z,93674.00
2023-04-14T04:30:30.673Z,93678.00
2023-04-14T04:31:30.715Z,93676.00
2023-04-14T04:32:30.786Z,93676.00
2023-04-14T04:33:30.644Z,93678.00
2023-04-14T04:34:30.647Z,93682.00
2023-04-14T04:35:30.674Z,93680.00
2023-04-14T04:36:30.671Z,93682.00
2023-04-14T04:37:30.691Z,93680.00
2023-04-14T04:38:30.667Z,93682.00
2023-04-14T04:39:30.652Z,93682.00
2023-04-14T04:40:30.636Z,93682.00
2023-04-14T04:41:30.633Z,93682.00
2023-04-14T04:42:30.642Z,93680.00
2023-04-14T04:43:30.698Z,93684.00
2023-04-14T04:44:30.737Z,93686.00
2023-04-14T04:45:30.751Z,93686.00
2023-04-14T04:46:30.778Z,93688.00
2023-04-14T04:47:30.806Z,93688.00
2023-04-14T04:48:30.756Z,93690.00
2023-04-14T04:49:30.847Z,93688.00
2023-04-14T04:50:30.831Z,93690.00
2023-04-14T04:51:30.820Z,93690.00
2023-04-14T04:52:30.861Z,93692.00
2023-04-14T04:53:30.934Z,93694.00
2023-04-14T04:54:30.931Z,93694.00
2023-04-14T04:55:30.951Z,93696.00
2023-04-14T04:56:30.950Z,93694.00
2023-04-14T04:57:31.011Z,93694.00
2023-04-14T04:58:31.051Z,93690.00
2023-04-14T04:59:31.017Z,93690.00
2023-04-14T05:00:31.072Z,93692.00
2023-04-14T05:01:31.180Z,93694.00
2023-04-14T05:02:31.224Z,93688.00
2023-04-14T05:03:31.263Z,93692.00
2023-04-14T05:04:31.333Z,93688.00
2023-04-14T05:05:31.332Z,93688.00
2023-04-14T05:06:31.357Z,93692.00
2023-04-14T05:07:31.400Z,93688.00
2023-04-14T05:08:31.493Z,93686.00
2023-04-14T05:09:31.532Z,93688.00
2023-04-14T05:10:31.576Z,93686.00
2023-04-14T05:11:31.656Z,93688.00
2023-04-14T05:12:31.718Z,93680.00
2023-04-14T05:13:31.785Z,93684.00
2023-04-14T05:14:31.789Z,93682.00
2023-04-14T05:15:31.881Z,93682.00
2023-04-14T05:16:31.971Z,93680.00
2023-04-14T05:17:32.050Z,93680.00
2023-04-14T05:18:32.077Z,93680.00
2023-04-14T05:19:32.141Z,93680.00
2023-04-14T05:20:33.012Z,93678.00
2023-04-14T05:21:32.330Z,93678.00
2023-04-14T05:22:32.408Z,93680.00
2023-04-14T05:23:32.486Z,93678.00
2023-04-14T05:24:32.556Z,93678.00
2023-04-14T05:25:32.619Z,93676.00
2023-04-14T05:26:51.655Z,93674.00
2023-04-14T05:27:33.681Z,93678.00
2023-04-14T05:28:32.705Z,93682.00
2023-04-14T05:29:32.633Z,93678.00
2023-04-14T05:30:32.691Z,93678.00
2023-04-14T05:31:32.824Z,93680.00
2023-04-14T05:32:32.690Z,93684.00
2023-04-14T05:33:32.633Z,93690.00
2023-04-14T05:34:32.620Z,93694.00
2023-04-14T05:35:32.664Z,93694.00
2023-04-14T05:36:33.023Z,93694.00
2023-04-14T05:37:34.459Z,93694.00
2023-04-14T05:38:32.765Z,93694.00
2023-04-14T05:39:32.806Z,93696.00
2023-04-14T05:40:33.156Z,93694.00
2023-04-14T05:41:32.759Z,93696.00
2023-04-14T05:42:32.783Z,93692.00
2023-04-14T05:43:32.752Z,93692.00
2023-04-14T05:44:32.747Z,93696.00
2023-04-14T05:45:32.713Z,93698.00
2023-04-14T05:46:32.753Z,93702.00
2023-04-14T05:47:32.741Z,93700.00
2023-04-14T05:48:32.714Z,93702.00
2023-04-14T05:49:32.706Z,93702.00
2023-04-14T05:50:32.734Z,93704.00
2023-04-14T05:51:32.835Z,93709.00
2023-04-14T05:52:32.685Z,93711.00
2023-04-14T05:53:32.747Z,93713.00
2023-04-14T05:54:32.651Z,93711.00
2023-04-14T05:55:32.661Z,93713.00
2023-04-14T05:56:32.686Z,93715.00
2023-04-14T05:57:32.650Z,93715.00
2023-04-14T05:58:32.632Z,93715.00
2023-04-14T05:59:32.670Z,93717.00
2023-04-14T06:00:32.599Z,93717.00
2023-04-14T06:01:32.707Z,93721.00
2023-04-14T06:02:32.696Z,93719.00
2023-04-14T06:03:32.970Z,93723.00
2023-04-14T06:04:32.677Z,93725.00
2023-04-14T06:05:32.679Z,93723.00
2023-04-14T06:06:33.239Z,93725.00
2023-04-14T06:07:32.634Z,93725.00
2023-04-14T06:08:32.575Z,93721.00
2023-04-14T06:09:32.573Z,93721.00
2023-04-14T06:10:32.544Z,93727.00
2023-04-14T06:11:32.519Z,93723.00
2023-04-14T06:12:32.545Z,93725.00
2023-04-14T06:13:35.585Z,93725.00
2023-04-14T06:14:32.500Z,93721.00
2023-04-14T06:15:32.497Z,93723.00
2023-04-14T06:16:32.622Z,93725.00
2023-04-14T06:17:32.519Z,93723.00
2023-04-14T06:18:32.485Z,93723.00
2023-04-14T06:19:32.464Z,93725.00
2023-04-14T06:20:32.836Z,93725.00
2023-04-14T06:21:32.459Z,93725.00
2023-04-14T06:22:32.446Z,93725.00
2023-04-14T06:23:32.494Z,93723.00
2023-04-14T06:24:32.428Z,93727.00
2023-04-14T06:25:32.501Z,93727.00
2023-04-14T06:26:32.464Z,93727.00
2023-04-14T06:27:32.413Z,93725.00
2023-04-14T06:28:32.437Z,93725.00
2023-04-14T06:29:32.406Z,93729.00
2023-04-14T06:30:32.554Z,93731.00
2023-04-14T06:31:32.720Z,93727.00
2023-04-14T06:32:32.389Z,93729.00
2023-04-14T06:33:32.376Z,93727.00
2023-04-14T06:34:32.364Z,93729.00
2023-04-14T06:35:33.779Z,93727.00
2023-04-14T06:36:32.679Z,93731.00
2023-04-14T06:37:32.481Z,93727.00
2023-04-14T06:38:32.409Z,93727.00
2023-04-14T06:39:32.373Z,93725.00
2023-04-14T06:40:32.332Z,93721.00
2023-04-14T06:41:32.310Z,93721.00
2023-04-14T06:42:32.302Z,93719.00
2023-04-14T06:43:32.304Z,93715.00
2023-04-14T06:44:32.344Z,93715.00
2023-04-14T06:45:32.343Z,93719.00
2023-04-14T06:46:32.772Z,93711.00
2023-04-14T06:47:32.457Z,93713.00
2023-04-14T06:48:32.444Z,93713.00
2023-04-14T06:49:32.701Z,93715.00
2023-04-14T06:50:32.556Z,93713.00
2023-04-14T06:51:32.547Z,93711.00
2023-04-14T06:52:32.562Z,93711.00
2023-04-14T06:53:32.595Z,93711.00
2023-04-14T06:54:32.653Z,93709.00
2023-04-14T06:55:33.233Z,93713.00
2023-04-14T06:56:32.760Z,93711.00
2023-04-14T06:57:32.757Z,93707.00
2023-04-14T06:58:32.787Z,93709.00
2023-04-14T06:59:32.699Z,93709.00
2023-04-14T07:00:32.716Z,93709.00
2023-04-14T07:01:32.788Z,93711.00
2023-04-14T07:02:32.729Z,93709.00
2023-04-14T07:03:32.698Z,93713.00
2023-04-14T07:04:32.712Z,93711.00
2023-04-14T07:05:32.643Z,93711.00
2023-04-14T07:06:32.664Z,93711.00
2023-04-14T07:07:32.645Z,93715.00
2023-04-14T07:08:32.631Z,93717.00
2023-04-14T07:09:32.658Z,93715.00
2023-04-14T07:10:32.633Z,93719.00
2023-04-14T07:11:32.660Z,93719.00
2023-04-14T07:12:32.637Z,93721.00
2023-04-14T07:13:32.684Z,93719.00
2023-04-14T07:14:32.759Z,93717.00
2023-04-14T07:15:32.668Z,93719.00
2023-04-14T07:16:32.750Z,93717.00
2023-04-14T07:17:32.696Z,93723.00
2023-04-14T07:18:32.650Z,93721.00
2023-04-14T07:19:32.640Z,93723.00
2023-04-14T07:20:32.639Z,93719.00
2023-04-14T07:21:32.659Z,93723.00
2023-04-14T07:22:32.630Z,93721.00
2023-04-14T07:23:32.716Z,93721.00
2023-04-14T07:24:32.650Z,93723.00
2023-04-14T07:25:32.640Z,93723.00
2023-04-14T07:26:32.656Z,93725.00
2023-04-14T07:27:32.630Z,93725.00
2023-04-14T07:28:32.662Z,93723.00
2023-04-14T07:29:32.658Z,93725.00
2023-04-14T07:30:32.648Z,93729.00
2023-04-14T07:31:32.750Z,93731.00
2023-04-14T07:32:32.747Z,93731.00
2023-04-14T07:33:32.740Z,93739.00
2023-04-14T07:34:32.732Z,93743.00
2023-04-14T07:35:32.717Z,93743.00
2023-04-14T07:36:32.802Z,93739.00
2023-04-14T07:37:32.667Z,93745.00
2023-04-14T07:38:32.720Z,93741.00
2023-04-14T07:39:32.794Z,93741.00
2023-04-14T07:40:32.776Z,93739.00
2023-04-14T07:41:32.861Z,93737.00
2023-04-14T07:42:32.983Z,93741.00
2023-04-14T07:43:32.962Z,93741.00
2023-04-14T07:44:33.040Z,93745.00
2023-04-14T07:45:33.104Z,93743.00
2023-04-14T07:46:33.184Z,93743.00
2023-04-14T07:47:33.283Z,93741.00
2023-04-14T07:48:33.251Z,93741.00
2023-04-14T07:49:34.225Z,93745.00
2023-04-14T07:50:33.364Z,93745.00
2023-04-14T07:51:33.709Z,93743.00
2023-04-14T07:52:33.421Z,93745.00
2023-04-14T07:53:33.473Z,93749.00
2023-04-14T07:54:33.534Z,93747.00
2023-04-14T07:55:33.535Z,93751.00
2023-04-14T07:56:33.598Z,93751.00
2023-04-14T07:57:33.647Z,93749.00
2023-04-14T07:58:33.845Z,93747.00
2023-04-14T07:59:33.643Z,93747.00
2023-04-14T08:00:33.701Z,93745.00
2023-04-14T08:01:33.785Z,93751.00
2023-04-14T08:02:33.771Z,93752.00
2023-04-14T08:03:33.980Z,93754.00
2023-04-14T08:04:33.761Z,93754.00
2023-04-14T08:05:33.841Z,93756.00
2023-04-14T08:06:33.809Z,93754.00
2023-04-14T08:07:33.815Z,93758.00
2023-04-14T08:08:33.835Z,93754.00
2023-04-14T08:09:33.849Z,93758.00
2023-04-14T08:10:33.856Z,93758.00
2023-04-14T08:11:33.904Z,93760.00
2023-04-14T08:12:33.874Z,93760.00
2023-04-14T08:13:33.959Z,93764.00
2023-04-14T08:14:33.912Z,93766.00
2023-04-14T08:15:33.928Z,93766.00
2023-04-14T08:16:33.983Z,93768.00
2023-04-14T08:17:33.948Z,93770.00
2023-04-14T08:18:33.964Z,93772.00
2023-04-14T08:19:33.954Z,93772.00
2023-04-14T08:20:34.012Z,93770.00
2023-04-14T08:21:34.162Z,93772.00
2023-04-14T08:22:33.998Z,93766.00
2023-04-14T08:23:34.037Z,93770.00
2023-04-14T08:24:36.006Z,93770.00
2023-04-14T08:25:33.996Z,93770.00
2023-04-14T08:26:34.236Z,93772.00
2023-04-14T08:27:33.965Z,93774.00
2023-04-14T08:28:33.969Z,93772.00
2023-04-14T08:29:33.944Z,93774.00
2023-04-14T08:30:33.962Z,93776.00
2023-04-14T08:31:34.289Z,93778.00
2023-04-14T08:32:34.005Z,93780.00
2023-04-14T08:33:34.043Z,93782.00
2023-04-14T08:34:34.872Z,93784.00
2023-04-14T08:35:38.784Z,93780.00
2023-04-14T08:36:34.933Z,93780.00
2023-04-14T08:37:33.954Z,93780.00
2023-04-14T08:38:33.896Z,93780.00
2023-04-14T08:39:33.875Z,93780.00
2023-04-14T08:40:33.884Z,93780.00
2023-04-14T08:41:34.219Z,93782.00
2023-04-14T08:42:33.889Z,93780.00
2023-04-14T08:43:33.924Z,93780.00
2023-04-14T08:44:33.867Z,93774.00
2023-04-14T08:45:34.828Z,93778.00
2023-04-14T08:46:34.265Z,93774.00
2023-04-14T08:47:34.770Z,93774.00
2023-04-14T08:48:33.846Z,93776.00
2023-04-14T08:49:33.963Z,93772.00
2023-04-14T08:50:34.256Z,93774.00
2023-04-14T08:51:33.885Z,93774.00
2023-04-14T08:52:34.786Z,93774.00
2023-04-14T08:53:33.878Z,93776.00
2023-04-14T08:54:33.923Z,93772.00
2023-04-14T08:55:34.287Z,93772.00
2023-04-14T08:56:34.242Z,93776.00
2023-04-14T08:57:33.951Z,93774.00
2023-04-14T08:58:33.976Z,93774.00
2023-04-14T08:59:34.011Z,93772.00
2023-04-14T09:00:34.008Z,93772.00
2023-04-14T09:01:35.862Z,93776.00
2023-04-14T09:02:34.095Z,93770.00
2023-04-14T09:03:34.182Z,93770.00
2023-04-14T09:04:34.135Z,93768.00
2023-04-14T09:05:34.018Z,93770.00
2023-04-14T09:06:34.029Z,93766.00
2023-04-14T09:07:33.994Z,93768.00
2023-04-14T09:08:34.126Z,93764.00
2023-04-14T09:09:34.030Z,93768.00
2023-04-14T09:10:34.034Z,93768.00
2023-04-14T09:11:34.818Z,93768.00
2023-04-14T09:12:34.015Z,93766.00
2023-04-14T09:13:34.036Z,93762.00
2023-04-14T09:14:34.128Z,93762.00
2023-04-14T09:15:34.170Z,93766.00
2023-04-14T09:16:34.283Z,93766.00
2023-04-14T09:17:34.415Z,93766.00
2023-04-14T09:18:34.442Z,93764.00
2023-04-14T09:19:34.316Z,93768.00
2023-04-14T09:20:40.409Z,93770.00
2023-04-14T09:21:51.630Z,93774.00
2023-04-14T09:22:35.369Z,93772.00
2023-04-14T09:23:34.447Z,93778.00
2023-04-14T09:24:34.419Z,93780.00
2023-04-14T09:25:34.423Z,93784.00
2023-04-14T09:26:34.360Z,93782.00
2023-04-14T09:27:34.320Z,93784.00
2023-04-14T09:28:34.353Z,93786.00
2023-04-14T09:29:34.322Z,93786.00
2023-04-14T09:30:34.323Z,93788.00
2023-04-14T09:31:34.493Z,93784.00
2023-04-14T09:32:34.339Z,93786.00
2023-04-14T09:33:34.347Z,93784.00
2023-04-14T09:34:34.304Z,93780.00
2023-04-14T09:35:34.750Z,93782.00
2023-04-14T09:36:34.280Z,93784.00
2023-04-14T09:37:34.853Z,93782.00
2023-04-14T09:38:34.244Z,93782.00
2023-04-14T09:39:34.235Z,93786.00
2023-04-14T09:40:34.945Z,93782.00
2023-04-14T09:41:34.297Z,93788.00
2023-04-14T09:42:34.270Z,93786.00
2023-04-14T09:43:34.243Z,93788.00
2023-04-14T09:44:34.217Z,93790.00
2023-04-14T09:45:34.268Z,93790.00
2023-04-14T09:46:34.230Z,93796.00
2023-04-14T09:47:34.269Z,93798.00
2023-04-14T09:48:34.236Z,93796.00
2023-04-14T09:49:34.243Z,93798.00
2023-04-14T09:50:34.156Z,93799.00
2023-04-14T09:51:34.156Z,93799.00
2023-04-14T09:52:34.160Z,93801.00
2023-04-14T09:53:34.187Z,93801.00
2023-04-14T09:54:34.190Z,93803.00
2023-04-14T09:55:34.200Z,93803.00
2023-04-14T09:56:34.206Z,93803.00
2023-04-14T09:57:34.260Z,93799.00
2023-04-14T09:58:34.268Z,93799.00
2023-04-14T09:59:34.271Z,93798.00
2023-04-14T10:00:34.224Z,93796.00
2023-04-14T10:01:34.728Z,93799.00
2023-04-14T10:02:34.342Z,93798.00
2023-04-14T10:03:34.437Z,93796.00
2023-04-14T10:04:34.263Z,93798.00
2023-04-14T10:05:34.971Z,93798.00
2023-04-14T10:06:34.232Z,93798.00
2023-04-14T10:07:34.255Z,93798.00
2023-04-14T10:08:34.276Z,93796.00
2023-04-14T10:09:34.284Z,93794.00
2023-04-14T10:10:34.324Z,93798.00
2023-04-14T10:11:34.296Z,93796.00
2023-04-14T10:12:34.324Z,93798.00
2023-04-14T10:13:34.377Z,93796.00
2023-04-14T10:14:34.439Z,93796.00
2023-04-14T10:15:34.619Z,93794.00
2023-04-14T10:16:34.778Z,93792.00
2023-04-14T10:17:34.601Z,93790.00
2023-04-14T10:18:34.649Z,93788.00
2023-04-14T10:19:34.721Z,93790.00
2023-04-14T10:20:34.765Z,93786.00
2023-04-14T10:21:34.861Z,93784.00
2023-04-14T10:22:34.930Z,93782.00
2023-04-14T10:23:34.951Z,93778.00
2023-04-14T10:24:35.008Z,93780.00
2023-04-14T10:25:35.074Z,93782.00
2023-04-14T10:26:35.134Z,93780.00
2023-04-14T10:27:35.287Z,93778.00
2023-04-14T10:28:35.302Z,93778.00
2023-04-14T10:29:36.277Z,93778.00
2023-04-14T10:30:35.411Z,93776.00
2023-04-14T10:31:36.292Z,93776.00
2023-04-14T10:32:35.833Z,93776.00
2023-04-14T10:33:35.574Z,93776.00
2023-04-14T10:34:35.631Z,93780.00
2023-04-14T10:35:35.678Z,93778.00
2023-04-14T10:36:35.747Z,93778.00
2023-04-14T10:37:35.793Z,93774.00
2023-04-14T10:38:35.835Z,93776.00
2023-04-14T10:39:35.925Z,93776.00
2023-04-14T10:40:36.279Z,93776.00
2023-04-14T10:41:36.768Z,93776.00
2023-04-14T10:42:36.294Z,93776.00
2023-04-14T10:43:36.130Z,93776.00
2023-04-14T10:44:36.199Z,93780.00
2023-04-14T10:45:36.315Z,93776.00
2023-04-14T10:46:36.393Z,93782.00
2023-04-14T10:47:36.373Z,93782.00
2023-04-14T10:48:36.420Z,93778.00
2023-04-14T10:49:36.488Z,93778.00
2023-04-14T10:50:36.583Z,93778.00
2023-04-14T10:51:36.636Z,93772.00
2023-04-14T10:52:36.817Z,93766.00
2023-04-14T10:53:39.340Z,93764.00
2023-04-14T10:54:36.684Z,93764.00
2023-04-14T10:55:40.124Z,93760.00
2023-04-14T10:56:37.805Z,93760.00
2023-04-14T10:57:38.599Z,93760.00
2023-04-14T10:58:37.290Z,93760.00
2023-04-14T10:59:36.690Z,93756.00
2023-04-14T11:00:37.310Z,93760.00
2023-04-14T11:01:36.665Z,93758.00
2023-04-14T11:02:36.826Z,93756.00
2023-04-14T11:03:36.837Z,93756.00
2023-04-14T11:04:36.825Z,93751.00
2023-04-14T11:05:36.807Z,93749.00
2023-04-14T11:06:37.278Z,93751.00
2023-04-14T11:07:37.319Z,93751.00
2023-04-14T11:08:37.018Z,93751.00
2023-04-14T11:09:37.020Z,93754.00
2023-04-14T11:10:37.085Z,93751.00
2023-04-14T11:11:37.134Z,93749.00
2023-04-14T11:12:37.287Z,93747.00
2023-04-14T11:13:37.269Z,93749.00
2023-04-14T11:14:37.393Z,93751.00
2023-04-14T11:15:37.505Z,93745.00
2023-04-14T11:16:40.320Z,93749.00
2023-04-14T11:17:38.628Z,93747.00
2023-04-14T11:18:37.501Z,93745.00
2023-04-14T11:19:37.513Z,93743.00
2023-04-14T11:20:37.473Z,93743.00
2023-04-14T11:21:37.596Z,93741.00
2023-04-14T11:22:37.703Z,93745.00
2023-04-14T11:23:37.721Z,93739.00
2023-04-14T11:24:37.795Z,93741.00
2023-04-14T11:25:37.729Z,93737.00
2023-04-14T11:26:37.810Z,93737.00
2023-04-14T11:27:37.878Z,93733.00
2023-04-14T11:28:37.919Z,93733.00
2023-04-14T11:29:37.969Z,93735.00
2023-04-14T11:30:38.032Z,93733.00
2023-04-14T11:31:38.345Z,93735.00
2023-04-14T11:32:38.151Z,93737.00
2023-04-14T11:33:38.220Z,93737.00
2023-04-14T11:34:38.283Z,93737.00
2023-04-14T11:35:38.351Z,93737.00
2023-04-14T11:36:38.834Z,93739.00
2023-04-14T11:37:38.865Z,93735.00
2023-04-14T11:38:38.498Z,93735.00
2023-04-14T11:39:38.548Z,93735.00
2023-04-14T11:40:38.564Z,93729.00
2023-04-14T11:41:38.625Z,93731.00
2023-04-14T11:42:38.678Z,93729.00
2023-04-14T11:43:38.689Z,93733.00
2023-04-14T11:44:38.745Z,93727.00